Worland Municipal Airport
KWRL : rendu visible

Aérodrome :











RETROUVEZ-NOUS SUR...

 
LOGIN :

S'inscrire | Disclaimer

   EN    FR    IT 

 









Légende :    VFR   VFR Marginal   IFR   IFR Intensif   IFR Très Intensif
Visi : 
Plafond : 
>= 8 km
>= 3000ft
5 à 8 km
1000 à 3000 ft
1500m à 5 km
500 à 1000 ft
800 à 1500m
200 à 500 ft
< 800m
< 200 ft
Symboles :   Orages  Brouillard  Fortes neiges  Fortes précipitations  Vent > 20 kt






- Altitude de l'aérodrome : 4227 ft
- Code IATA : WRL


KWRL - Worland Municipal

DERNIER METAR :
  • 070253Z AUTO 34009KT 10SM CLR 28/09 A2989 RMK AO2 SLP074 T02780094 53008

METARs EXPIRÉS :
  • 070153Z AUTO 01006KT 10SM CLR 31/07 A2987 RMK AO2 SLP065 T03060072
  • 070053Z AUTO 04007KT 10SM CLR 32/11 A2986 RMK AO2 SLP064 T03170111

TAF KWRL
Valide du 07 à 00h jusqu'au 08 à 00h UTC


062320Z 0700/0724 29011KT P6SM SCT150
FM070200 25006KT P6SM SKC
FM072000 25015G25KT P6SM SCT150
FIR KZLC / Amérique du Nord



MET'MAP, la Météo Aéronautique d'un coup d'oeil ! - Copyright ORBIFLY Décembre 2007 - Disclaimer

ORBIFLY MET'MAP TEAM :

Programmation & Développement : Alexandra Zaïnal
Sur une idée originale de : Baudouin d'Aumeries
Assistance à la programmation : Marc-Olivier Méhu
Soutien technique & logistique : Manuel Goepfert

Contact : metmap@orbifly.com




SOURCES & CREDITS :

   NOAA       Earth
Advisory